createdAt,value
2018-08-13T00:02:46.529Z,100.00
2018-08-13T00:05:50.925Z,100.00
2018-08-13T00:08:55.235Z,100.00
2018-08-13T00:11:59.481Z,100.00
2018-08-13T00:15:03.847Z,100.00
2018-08-13T00:18:09.650Z,100.00
2018-08-13T00:21:13.995Z,100.00
2018-08-13T00:24:18.334Z,100.00
2018-08-13T00:27:22.735Z,100.00
2018-08-13T00:30:27.145Z,100.00
2018-08-13T00:33:31.430Z,100.00
2018-08-13T00:36:35.750Z,100.00
2018-08-13T00:39:40.064Z,100.00
2018-08-13T00:42:44.377Z,100.00
2018-08-13T00:45:48.699Z,100.00
2018-08-13T00:48:53.021Z,100.00
2018-08-13T00:51:57.354Z,100.00
2018-08-13T00:55:01.665Z,100.00
2018-08-13T00:58:06.388Z,100.00
2018-08-13T01:01:10.725Z,100.00
2018-08-13T01:04:15.002Z,100.00
2018-08-13T01:07:19.280Z,100.00
2018-08-13T01:10:23.718Z,100.00
2018-08-13T01:13:28.308Z,100.00
2018-08-13T01:16:32.604Z,100.00
2018-08-13T01:19:36.921Z,100.00
2018-08-13T01:22:41.244Z,100.00
2018-08-13T01:25:45.590Z,100.00
2018-08-13T01:28:49.992Z,100.00
2018-08-13T01:31:54.321Z,100.00
2018-08-13T01:34:58.972Z,100.00
2018-08-13T01:38:03.357Z,100.00
2018-08-13T01:41:07.683Z,100.00
2018-08-13T01:44:12.150Z,100.00
2018-08-13T01:47:16.659Z,100.00
2018-08-13T01:50:20.891Z,100.00
2018-08-13T01:53:25.205Z,100.00
2018-08-13T01:56:29.556Z,100.00
2018-08-13T01:59:33.890Z,100.00
2018-08-13T02:02:38.222Z,100.00
2018-08-13T02:05:42.474Z,100.00
2018-08-13T02:08:46.769Z,100.00
2018-08-13T02:11:51.070Z,100.00
2018-08-13T02:14:55.370Z,100.00
2018-08-13T02:17:59.729Z,100.00
2018-08-13T02:21:04.044Z,100.00
2018-08-13T02:24:08.365Z,100.00
2018-08-13T02:27:12.759Z,100.00
2018-08-13T02:30:17.099Z,100.00
2018-08-13T02:33:21.400Z,100.00
2018-08-13T02:36:25.738Z,100.00
2018-08-13T02:39:30.161Z,100.00
2018-08-13T02:42:34.484Z,100.00
2018-08-13T02:45:38.737Z,100.00
2018-08-13T02:48:43.005Z,100.00
2018-08-13T02:51:47.311Z,100.00
2018-08-13T02:54:51.641Z,100.00
2018-08-13T02:57:55.966Z,100.00
2018-08-13T03:01:00.367Z,100.00
2018-08-13T03:04:04.805Z,100.00
2018-08-13T03:07:09.129Z,100.00
2018-08-13T03:10:13.999Z,100.00
2018-08-13T03:13:18.286Z,100.00
2018-08-13T03:16:22.751Z,100.00
2018-08-13T03:19:27.140Z,100.00
2018-08-13T03:22:31.834Z,100.00
2018-08-13T03:25:36.120Z,100.00
2018-08-13T03:28:40.496Z,100.00
2018-08-13T03:31:44.789Z,100.00
2018-08-13T03:34:49.175Z,100.00
2018-08-13T03:37:53.565Z,100.00
2018-08-13T03:40:57.864Z,100.00
2018-08-13T03:44:02.241Z,100.00
2018-08-13T03:47:06.910Z,100.00
2018-08-13T03:50:12.395Z,100.00
2018-08-13T03:53:16.689Z,100.00
2018-08-13T03:56:21.088Z,100.00
2018-08-13T03:59:25.422Z,100.00
2018-08-13T04:02:29.885Z,100.00
2018-08-13T04:05:34.274Z,100.00
2018-08-13T04:08:38.529Z,100.00
2018-08-13T04:11:42.829Z,100.00
2018-08-13T04:14:47.228Z,100.00
2018-08-13T04:17:51.524Z,100.00
2018-08-13T04:20:55.856Z,100.00
2018-08-13T04:24:00.221Z,100.00
2018-08-13T04:27:04.591Z,100.00
2018-08-13T04:30:13.244Z,100.00
2018-08-13T04:33:17.522Z,100.00
2018-08-13T04:36:21.856Z,100.00
2018-08-13T04:39:26.199Z,100.00
2018-08-13T04:42:30.480Z,100.00
2018-08-13T04:45:34.791Z,100.00
2018-08-13T04:48:39.159Z,100.00
2018-08-13T04:51:43.606Z,100.00
2018-08-13T04:54:47.891Z,100.00
2018-08-13T04:57:52.264Z,100.00
2018-08-13T05:00:56.629Z,100.00
2018-08-13T05:04:00.893Z,100.00
2018-08-13T05:07:05.232Z,100.00
2018-08-13T05:10:11.153Z,100.00
2018-08-13T05:13:15.534Z,100.00
2018-08-13T05:16:19.824Z,100.00
2018-08-13T05:19:24.179Z,100.00
2018-08-13T05:22:28.502Z,100.00
2018-08-13T05:25:32.792Z,100.00
2018-08-13T05:28:37.104Z,100.00
2018-08-13T05:31:41.412Z,100.00
2018-08-13T05:34:45.734Z,100.00
2018-08-13T05:37:50.082Z,100.00
2018-08-13T05:40:54.420Z,100.00
2018-08-13T05:43:59.038Z,100.00
2018-08-13T05:47:03.367Z,100.00
2018-08-13T05:50:09.854Z,100.00
2018-08-13T05:53:14.232Z,100.00
2018-08-13T05:56:18.603Z,100.00
2018-08-13T05:59:22.957Z,100.00
2018-08-13T06:02:27.320Z,100.00
2018-08-13T06:05:31.662Z,100.00
2018-08-13T06:08:36.044Z,100.00
2018-08-13T06:11:40.593Z,100.00
2018-08-13T06:14:44.798Z,100.00
2018-08-13T06:17:49.230Z,100.00
2018-08-13T06:20:53.519Z,100.00
2018-08-13T06:23:57.868Z,100.00
2018-08-13T06:27:02.289Z,100.00
2018-08-13T06:30:10.986Z,100.00
2018-08-13T06:33:15.334Z,100.00
2018-08-13T06:36:19.752Z,100.00
2018-08-13T06:39:24.070Z,100.00
2018-08-13T06:42:28.469Z,100.00
2018-08-13T06:45:32.788Z,100.00
2018-08-13T06:48:37.107Z,100.00
2018-08-13T06:51:41.433Z,100.00
2018-08-13T06:54:45.739Z,100.00
2018-08-13T06:57:50.038Z,100.00
2018-08-13T07:00:54.621Z,100.00
2018-08-13T07:03:58.918Z,100.00
2018-08-13T07:07:03.316Z,100.00
2018-08-13T07:10:13.223Z,100.00
2018-08-13T07:13:17.660Z,100.00
2018-08-13T07:16:22.037Z,100.00
2018-08-13T07:19:26.424Z,100.00
2018-08-13T07:22:30.805Z,100.00
2018-08-13T07:25:35.056Z,100.00
2018-08-13T07:28:39.360Z,100.00
2018-08-13T07:31:43.738Z,100.00
2018-08-13T07:34:48.065Z,100.00
2018-08-13T07:37:52.389Z,100.00
2018-08-13T07:40:56.658Z,100.00
2018-08-13T07:44:01.047Z,100.00
2018-08-13T07:47:05.395Z,100.00
2018-08-13T07:50:12.238Z,100.00
2018-08-13T07:53:16.536Z,100.00
2018-08-13T07:56:20.944Z,98.11
2018-08-13T07:59:25.364Z,96.22
2018-08-13T08:02:29.696Z,97.37
2018-08-13T08:05:34.101Z,96.08
2018-08-13T08:08:38.656Z,94.30
2018-08-13T08:11:42.946Z,94.39
2018-08-13T08:14:47.728Z,94.15
2018-08-13T08:17:52.110Z,93.94
2018-08-13T08:20:56.505Z,93.02
2018-08-13T08:24:00.989Z,92.97
2018-08-13T08:27:05.738Z,93.36
2018-08-13T08:30:11.062Z,92.41
2018-08-13T08:33:15.418Z,86.96
2018-08-13T08:36:19.717Z,89.82
2018-08-13T08:39:24.073Z,88.27
2018-08-13T08:42:28.496Z,86.09
2018-08-13T08:45:32.911Z,80.92
2018-08-13T08:48:37.219Z,82.14
2018-08-13T08:51:41.554Z,82.71
2018-08-13T08:54:45.971Z,84.90
2018-08-13T08:57:51.065Z,84.20
2018-08-13T09:00:55.405Z,85.26
2018-08-13T09:03:59.735Z,84.13
2018-08-13T09:07:04.035Z,83.96
2018-08-13T09:10:08.835Z,86.44
2018-08-13T09:13:13.132Z,84.45
2018-08-13T09:16:17.551Z,84.42
2018-08-13T09:19:39.018Z,83.16
2018-08-13T09:23:00.911Z,81.78
2018-08-13T09:26:22.521Z,81.94
2018-08-13T09:29:44.043Z,81.37
2018-08-13T09:33:05.564Z,81.51
2018-08-13T09:36:09.877Z,81.24
2018-08-13T09:39:14.210Z,81.14
2018-08-13T09:42:18.476Z,82.69
2018-08-13T09:45:22.818Z,81.87
2018-08-13T09:48:27.165Z,80.97
2018-08-13T09:51:31.457Z,81.87
2018-08-13T09:54:35.790Z,81.21
2018-08-13T09:57:40.116Z,82.49
2018-08-13T10:00:49.756Z,83.48
2018-08-13T10:03:54.151Z,82.71
2018-08-13T10:06:58.681Z,82.82
2018-08-13T10:10:03.041Z,82.82
2018-08-13T10:13:07.549Z,80.46
2018-08-13T10:16:11.837Z,80.26
2018-08-13T10:19:16.288Z,80.51
2018-08-13T10:22:20.607Z,80.66
2018-08-13T10:25:24.949Z,80.35
2018-08-13T10:28:29.411Z,79.63
2018-08-13T10:31:33.782Z,80.29
2018-08-13T10:34:38.085Z,80.74
2018-08-13T10:37:42.947Z,81.25
2018-08-13T10:40:47.230Z,81.90
2018-08-13T10:43:51.526Z,81.37
2018-08-13T10:46:55.878Z,82.38
2018-08-13T10:50:00.269Z,81.34
2018-08-13T10:53:04.697Z,82.71
2018-08-13T10:56:09.200Z,81.34
2018-08-13T10:59:13.572Z,80.88
2018-08-13T11:02:17.934Z,81.53
2018-08-13T11:05:22.502Z,80.81
2018-08-13T11:08:26.817Z,81.12
2018-08-13T11:11:31.128Z,81.25
2018-08-13T11:14:35.621Z,81.45
2018-08-13T11:17:40.401Z,81.12
2018-08-13T11:20:44.785Z,80.41
2018-08-13T11:23:49.147Z,80.44
2018-08-13T11:26:53.475Z,80.82
2018-08-13T11:29:57.869Z,79.24
2018-08-13T11:33:02.414Z,76.82
2018-08-13T11:36:06.815Z,77.25
2018-08-13T11:39:13.109Z,75.94
2018-08-13T11:42:17.546Z,75.47
2018-08-13T11:45:21.992Z,76.83
2018-08-13T11:48:26.296Z,75.57
2018-08-13T11:51:30.647Z,76.58
2018-08-13T11:54:34.968Z,76.92
2018-08-13T11:57:39.416Z,77.54
2018-08-13T12:00:43.862Z,78.98
2018-08-13T12:03:48.173Z,81.38
2018-08-13T12:06:52.452Z,83.12
2018-08-13T12:09:56.879Z,84.49
2018-08-13T12:13:01.229Z,85.35
2018-08-13T12:16:05.739Z,86.50
2018-08-13T12:19:10.327Z,86.90
2018-08-13T12:22:14.907Z,87.49
2018-08-13T12:25:23.660Z,86.94
2018-08-13T12:28:28.037Z,85.58
2018-08-13T12:31:32.350Z,83.46
2018-08-13T12:34:36.772Z,84.58
2018-08-13T12:37:41.121Z,82.23
2018-08-13T12:40:45.726Z,81.51
2018-08-13T12:43:50.041Z,81.93
2018-08-13T12:46:54.370Z,80.75
2018-08-13T12:49:58.690Z,80.40
2018-08-13T12:53:03.203Z,76.79
2018-08-13T12:56:07.542Z,76.57
2018-08-13T12:59:11.948Z,77.17
2018-08-13T13:02:16.423Z,79.11
2018-08-13T13:05:20.699Z,77.87
2018-08-13T13:08:24.990Z,78.02
2018-08-13T13:11:29.281Z,79.88
2018-08-13T13:14:33.634Z,80.75
2018-08-13T13:17:38.796Z,82.94
2018-08-13T13:20:43.190Z,83.53
2018-08-13T13:23:47.618Z,85.21
2018-08-13T13:26:51.970Z,85.08
2018-08-13T13:29:56.377Z,85.65
2018-08-13T13:33:00.694Z,87.55
2018-08-13T13:36:04.981Z,88.10
2018-08-13T13:39:10.106Z,88.40
2018-08-13T13:42:14.449Z,88.17
2018-08-13T13:45:19.005Z,88.74
2018-08-13T13:48:23.253Z,88.87
2018-08-13T13:51:27.650Z,87.99
2018-08-13T13:54:31.921Z,88.06
2018-08-13T13:57:36.440Z,87.85
2018-08-13T14:00:40.888Z,88.42
2018-08-13T14:03:45.203Z,89.70
2018-08-13T14:06:49.500Z,89.01
2018-08-13T14:09:53.799Z,89.19
2018-08-13T14:12:58.173Z,88.56
2018-08-13T14:16:02.573Z,89.10
2018-08-13T14:19:07.692Z,89.27
2018-08-13T14:22:12.005Z,88.75
2018-08-13T14:25:16.389Z,89.51
2018-08-13T14:28:20.775Z,88.29
2018-08-13T14:31:25.106Z,87.15
2018-08-13T14:34:29.547Z,87.87
2018-08-13T14:37:34.005Z,85.51
2018-08-13T14:40:38.362Z,81.93
2018-08-13T14:43:42.792Z,80.81
2018-08-13T14:46:47.102Z,78.34
2018-08-13T14:49:51.432Z,77.06
2018-08-13T14:52:56.238Z,76.97
2018-08-13T14:56:00.569Z,74.67
2018-08-13T14:59:05.007Z,73.35
2018-08-13T15:02:09.333Z,72.60
2018-08-13T15:05:13.765Z,71.48
2018-08-13T15:08:18.154Z,72.14
2018-08-13T15:11:26.218Z,70.47
2018-08-13T15:14:30.588Z,70.05
2018-08-13T15:17:34.990Z,71.08
2018-08-13T15:20:39.253Z,71.33
2018-08-13T15:23:43.638Z,71.34
2018-08-13T15:26:47.981Z,72.06
2018-08-13T15:29:52.287Z,72.61
2018-08-13T15:32:56.629Z,72.40
2018-08-13T15:36:01.037Z,73.51
2018-08-13T15:39:08.607Z,73.45
2018-08-13T15:42:12.953Z,75.65
2018-08-13T15:45:20.476Z,76.82
2018-08-13T15:48:24.856Z,78.58
2018-08-13T15:51:29.341Z,80.08
2018-08-13T15:54:33.596Z,81.02
2018-08-13T15:57:37.924Z,80.87
2018-08-13T16:00:42.349Z,81.16
2018-08-13T16:03:46.780Z,83.05
2018-08-13T16:06:51.159Z,84.21
2018-08-13T16:09:55.686Z,84.34
2018-08-13T16:13:00.039Z,84.09
2018-08-13T16:16:04.417Z,83.44
2018-08-13T16:19:08.763Z,83.98
2018-08-13T16:22:13.073Z,83.71
2018-08-13T16:25:18.051Z,83.86
2018-08-13T16:28:22.410Z,83.50
2018-08-13T16:31:26.759Z,82.12
2018-08-13T16:34:31.078Z,82.56
2018-08-13T16:37:35.388Z,83.45
2018-08-13T16:40:39.700Z,83.29
2018-08-13T16:43:44.016Z,84.06
2018-08-13T16:46:48.382Z,84.54
2018-08-13T16:49:52.755Z,85.77
2018-08-13T16:52:57.489Z,85.19
2018-08-13T16:56:02.494Z,84.89
2018-08-13T16:59:06.969Z,85.17
2018-08-13T17:02:11.266Z,84.60
2018-08-13T17:05:15.609Z,84.00
2018-08-13T17:08:19.925Z,83.82
2018-08-13T17:11:27.147Z,83.41
2018-08-13T17:14:31.701Z,83.37
2018-08-13T17:17:36.071Z,83.53
2018-08-13T17:20:42.092Z,84.10
2018-08-13T17:23:46.506Z,83.47
2018-08-13T17:26:50.875Z,83.37
2018-08-13T17:29:55.194Z,85.20
2018-08-13T17:33:01.264Z,85.91
2018-08-13T17:36:06.080Z,87.16
2018-08-13T17:39:14.222Z,87.94
2018-08-13T17:42:18.610Z,88.89
2018-08-13T17:45:23.058Z,89.16
2018-08-13T17:48:27.463Z,90.55
2018-08-13T17:51:31.870Z,90.89
2018-08-13T17:54:36.194Z,92.34
2018-08-13T17:57:41.253Z,92.56
2018-08-13T18:00:45.634Z,92.96
2018-08-13T18:03:50.088Z,92.47
2018-08-13T18:06:54.395Z,91.90
2018-08-13T18:09:58.802Z,90.09
2018-08-13T18:13:06.304Z,88.82
2018-08-13T18:16:10.691Z,88.18
2018-08-13T18:19:15.453Z,88.32
2018-08-13T18:22:19.878Z,87.83
2018-08-13T18:25:24.288Z,87.31
2018-08-13T18:28:28.709Z,88.24
2018-08-13T18:31:33.021Z,87.56
2018-08-13T18:34:37.381Z,87.76
2018-08-13T18:37:42.113Z,88.01
2018-08-13T18:40:46.491Z,88.70
2018-08-13T18:43:50.952Z,88.76
2018-08-13T18:46:55.252Z,87.85
2018-08-13T18:49:59.528Z,87.32
2018-08-13T18:53:03.886Z,87.47
2018-08-13T18:56:08.715Z,86.90
2018-08-13T18:59:13.065Z,87.12
2018-08-13T19:02:17.384Z,86.72
2018-08-13T19:05:22.648Z,87.35
2018-08-13T19:08:27.001Z,86.91
2018-08-13T19:11:31.328Z,87.15
2018-08-13T19:14:35.757Z,88.19
2018-08-13T19:17:40.393Z,88.84
2018-08-13T19:20:44.789Z,88.60
2018-08-13T19:23:49.117Z,89.23
2018-08-13T19:26:53.669Z,89.91
2018-08-13T19:29:58.056Z,90.59
2018-08-13T19:33:03.165Z,91.30
2018-08-13T19:36:07.644Z,92.09
2018-08-13T19:39:13.621Z,92.02
2018-08-13T19:42:17.968Z,92.87
2018-08-13T19:45:23.080Z,93.13
2018-08-13T19:48:27.465Z,93.01
2018-08-13T19:51:31.754Z,93.28
2018-08-13T19:54:36.172Z,93.18
2018-08-13T19:57:40.784Z,93.90
2018-08-13T20:00:45.200Z,94.13
2018-08-13T20:03:49.489Z,95.34
2018-08-13T20:06:53.823Z,96.56
2018-08-13T20:09:58.206Z,97.24
2018-08-13T20:13:02.525Z,98.60
2018-08-13T20:16:06.834Z,99.79
2018-08-13T20:19:11.186Z,100.00
2018-08-13T20:22:16.452Z,100.00
2018-08-13T20:25:21.580Z,100.00
2018-08-13T20:28:25.947Z,100.00
2018-08-13T20:31:30.400Z,100.00
2018-08-13T20:34:34.717Z,100.00
2018-08-13T20:37:39.062Z,100.00
2018-08-13T20:40:43.478Z,100.00
2018-08-13T20:43:47.880Z,100.00
2018-08-13T20:46:52.312Z,100.00
2018-08-13T20:49:56.620Z,100.00
2018-08-13T20:53:00.917Z,100.00
2018-08-13T20:56:05.519Z,100.00
2018-08-13T20:59:09.937Z,100.00
2018-08-13T21:02:14.288Z,100.00
2018-08-13T21:05:18.883Z,100.00
2018-08-13T21:08:23.342Z,100.00
2018-08-13T21:11:27.769Z,100.00
2018-08-13T21:14:32.113Z,100.00
2018-08-13T21:17:36.535Z,100.00
2018-08-13T21:20:40.932Z,100.00
2018-08-13T21:23:46.189Z,100.00
2018-08-13T21:26:50.588Z,100.00
2018-08-13T21:29:54.865Z,100.00
2018-08-13T21:32:59.262Z,100.00
2018-08-13T21:36:03.522Z,100.00
2018-08-13T21:39:10.482Z,100.00
2018-08-13T21:42:14.928Z,100.00
2018-08-13T21:45:19.310Z,100.00
2018-08-13T21:48:23.603Z,100.00
2018-08-13T21:51:27.920Z,100.00
2018-08-13T21:54:32.171Z,100.00
2018-08-13T21:57:36.551Z,100.00
2018-08-13T22:00:46.114Z,100.00
2018-08-13T22:03:50.507Z,100.00
2018-08-13T22:06:55.569Z,100.00
2018-08-13T22:09:59.873Z,100.00
2018-08-13T22:13:04.194Z,100.00
2018-08-13T22:16:08.506Z,100.00
2018-08-13T22:19:12.838Z,100.00
2018-08-13T22:22:17.150Z,100.00
2018-08-13T22:25:26.955Z,100.00
2018-08-13T22:28:31.277Z,100.00
2018-08-13T22:31:35.615Z,100.00
2018-08-13T22:34:40.700Z,100.00
2018-08-13T22:37:45.105Z,100.00
2018-08-13T22:40:49.403Z,100.00
2018-08-13T22:43:53.715Z,100.00
2018-08-13T22:46:58.041Z,100.00
2018-08-13T22:50:02.404Z,100.00
2018-08-13T22:53:07.223Z,100.00
2018-08-13T22:56:11.674Z,100.00
2018-08-13T22:59:16.028Z,100.00
2018-08-13T23:02:20.352Z,100.00
2018-08-13T23:05:26.357Z,100.00
2018-08-13T23:08:30.756Z,100.00
2018-08-13T23:11:34.998Z,100.00
2018-08-13T23:14:39.700Z,100.00
2018-08-13T23:17:44.441Z,100.00
2018-08-13T23:20:48.729Z,100.00
2018-08-13T23:23:53.233Z,100.00
2018-08-13T23:26:57.834Z,100.00
2018-08-13T23:30:02.226Z,100.00
2018-08-13T23:33:08.555Z,100.00
2018-08-13T23:36:12.990Z,100.00
2018-08-13T23:39:17.295Z,100.00
2018-08-13T23:42:21.674Z,100.00
2018-08-13T23:45:29.900Z,100.00
2018-08-13T23:48:34.239Z,100.00
2018-08-13T23:51:38.596Z,100.00
2018-08-13T23:54:42.980Z,100.00
2018-08-13T23:57:47.770Z,100.00
